Time;durP1;ratioP1;P1;durP2;ratioP2;P2;SDS_P1;SDS_P2;PMS_P1;PMS_P2;Temp;Humidity;BMP_temperature;BMP_pressure;BME280_temperature;BME280_humidity;BME280_pressure;Samples;Min_cycle;Max_cycle;Signal;HPM_P1;HPM_P2
2022/10/20 00:04:36;;;;;;;;;;;8.90;86.70;;;6.96;70.31;100976.84;10506540;28;19928;-82
2022/10/20 00:09:40;;;;;;;;;;;8.80;86.80;;;6.77;70.50;100980.13;10528024;28;19932;-82
2022/10/20 00:14:42;;;;;;;;;;;8.60;87.30;;;6.65;71.05;100987.22;10499020;28;20296;-83
2022/10/20 00:19:48;;;;;;;;;;;8.50;87.90;;;6.53;71.42;100996.13;10483297;28;19928;-84
2022/10/20 00:24:51;;;;;;;;;;;8.40;87.20;;;6.38;72.08;101000.03;10483859;28;19951;-85
2022/10/20 00:29:54;;;;;;;;;;;8.30;90.10;;;6.30;72.61;100998.00;10509849;28;20472;-82
2022/10/20 00:34:57;;;;;;;;;;;8.20;90.30;;;6.29;73.24;101003.38;10503537;28;19972;-83
2022/10/20 00:40:00;;;;;;;;;;;8.10;90.60;;;6.31;73.43;101004.94;10511033;28;20315;-83
2022/10/20 00:45:11;;;;;;;;;;;8.10;90.20;;;6.31;73.14;100997.03;10490494;28;19994;-83
2022/10/20 00:50:20;;;;;;;;;;;8.10;90.40;;;6.31;73.35;100998.81;10494747;28;20395;-83
2022/10/20 00:55:31;;;;;;;;;;;8.10;90.00;;;6.26;73.19;101007.09;10510599;28;20336;-83
2022/10/20 01:00:36;;;;;;;;;;;8.10;89.90;;;6.14;73.26;101011.53;10503202;28;20009;-82
2022/10/20 01:05:38;;;;;;;;;;;8.00;90.10;;;5.99;73.97;101009.22;10497457;28;19932;-83
2022/10/20 01:11:24;;;;;;;;;;;7.90;91.10;;;5.86;74.92;101010.16;10488378;28;19936;-81
2022/10/20 01:16:46;;;;;;;;;;;7.70;91.90;;;5.82;75.99;101005.25;10434900;28;19936;-83
2022/10/20 01:21:57;;;;;;;;;;;7.60;92.50;;;5.82;76.21;101003.44;10527554;28;19929;-83
2022/10/20 01:27:25;;;;;;;;;;;7.60;92.00;;;5.82;75.80;101005.25;10505021;28;19936;-83
2022/10/20 01:32:37;;;;;;;;;;;7.60;92.10;;;5.75;76.08;101006.66;10506627;28;20380;-83
2022/10/20 01:37:55;;;;;;;;;;;7.60;92.20;;;5.68;76.00;101008.91;10509520;28;19928;-83
2022/10/20 01:43:02;;;;;;;;;;;7.50;92.20;;;5.60;76.20;101014.78;10509220;28;19932;-83
2022/10/20 01:48:06;;;;;;;;;;;7.50;92.40;;;5.49;76.36;101016.53;10489864;28;19933;-83
2022/10/20 01:53:09;;;;;;;;;;;7.40;92.50;;;5.43;76.68;101009.94;10493358;28;19970;-83
2022/10/20 01:58:38;;;;;;;;;;;7.30;92.40;;;5.39;76.44;101013.75;10508485;28;19928;-83
2022/10/20 02:03:53;;;;;;;;;;;7.30;92.50;;;5.31;76.90;101011.69;10473684;28;19929;-83
2022/10/20 02:09:03;;;;;;;;;;;7.20;92.70;;;5.27;77.10;101006.75;10507621;28;19929;-85
2022/10/20 02:14:09;;;;;;;;;;;7.20;93.10;;;5.16;77.49;101006.69;10526523;28;19929;-85
2022/10/20 02:19:12;;;;;;;;;;;7.10;93.90;;;5.14;78.25;101012.09;10505393;28;19932;-85
2022/10/20 02:24:16;;;;;;;;;;;7.00;94.00;;;5.15;79.04;101023.47;10506062;28;19933;-84
2022/10/20 02:29:24;;;;;;;;;;;7.00;95.30;;;5.18;79.16;101028.53;10524207;28;19974;-85
2022/10/20 02:34:26;;;;;;;;;;;7.00;95.30;;;5.20;79.50;101032.72;10477977;28;19929;-85
2022/10/20 02:39:29;;;;;;;;;;;7.00;95.80;;;5.21;79.71;101030.91;10491203;28;20051;-85
2022/10/20 02:44:32;;;;;;;;;;;7.00;96.20;;;5.23;79.43;101031.66;10497878;28;19936;-85
2022/10/20 02:49:35;;;;;;;;;;;7.00;96.20;;;5.21;79.57;101046.72;10525467;28;19928;-85
2022/10/20 02:54:39;;;;;;;;;;;7.00;96.10;;;5.20;79.37;101047.69;10521361;28;19928;-85
2022/10/20 02:59:41;;;;;;;;;;;7.00;96.20;;;5.19;79.57;101043.38;10556856;28;20006;-85
2022/10/20 03:04:44;;;;;;;;;;;7.00;96.10;;;5.13;79.19;101052.56;10526355;28;19929;-85
2022/10/20 03:09:47;;;;;;;;;;;7.00;96.10;;;5.04;79.51;101054.09;10521794;28;19935;-85
2022/10/20 03:14:50;;;;;;;;;;;6.90;96.20;;;4.94;79.44;101063.59;10513955;28;19928;-85
2022/10/20 03:19:53;;;;;;;;;;;6.80;96.10;;;4.89;79.54;101059.63;10526526;28;19928;-85
2022/10/20 03:24:56;;;;;;;;;;;6.80;96.20;;;4.80;79.52;101075.13;10510728;28;19928;-85
2022/10/20 03:29:58;;;;;;;;;;;6.70;96.10;;;4.75;79.90;101079.03;10513208;28;19934;-85
2022/10/20 03:35:01;;;;;;;;;;;6.60;96.20;;;4.65;80.03;101086.75;10496120;28;19934;-85
2022/10/20 03:40:04;;;;;;;;;;;6.60;96.70;;;4.51;79.84;101095.63;10494721;28;19936;-85
2022/10/20 03:45:08;;;;;;;;;;;6.40;96.80;;;4.41;80.23;101097.19;10517128;28;19928;-85
2022/10/20 03:50:10;;;;;;;;;;;6.30;96.70;;;4.29;80.35;101095.41;10483430;28;19928;-85
2022/10/20 03:55:15;;;;;;;;;;;6.20;96.80;;;4.19;80.32;101096.97;10512819;28;19959;-85
2022/10/20 04:00:17;;;;;;;;;;;6.10;97.00;;;4.08;80.56;101096.88;10508621;28;20310;-85
2022/10/20 04:05:20;;;;;;;;;;;6.00;97.70;;;3.94;80.62;101085.50;10528051;28;19929;-86
2022/10/20 04:10:23;;;;;;;;;;;5.90;97.70;;;3.91;81.07;101098.88;10507567;28;19936;-95
2022/10/20 04:15:28;;;;;;;;;;;5.80;97.90;;;3.82;81.12;101082.84;10504318;28;20019;-93
2022/10/20 04:20:31;;;;;;;;;;;5.80;98.50;;;3.71;81.73;101081.78;10502864;28;19950;-92
2022/10/20 04:25:34;;;;;;;;;;;5.70;98.40;;;3.72;81.87;101098.41;10507263;28;19982;-93
2022/10/20 04:30:40;;;;;;;;;;;5.60;98.50;;;3.66;82.21;101093.56;10494557;28;20376;-93
2022/10/20 04:35:43;;;;;;;;;;;5.60;98.90;;;3.56;82.18;101087.22;10490924;28;19928;-93
2022/10/20 04:40:53;;;;;;;;;;;5.50;99.00;;;3.58;82.73;101093.22;10511573;28;19929;-93
2022/10/20 04:46:01;;;;;;;;;;;5.50;99.50;;;3.54;82.59;101086.47;10528671;28;20292;-92
2022/10/20 04:51:13;;;;;;;;;;;5.50;99.80;;;3.51;83.25;101089.31;10493773;28;19928;-93
2022/10/20 04:56:18;;;;;;;;;;;5.40;99.90;;;3.52;83.59;101094.47;10510597;28;19986;-94
2022/10/20 05:01:24;;;;;;;;;;;5.40;99.90;;;3.58;84.00;101091.44;10500662;28;19951;-92
2022/10/20 05:06:29;;;;;;;;;;;5.50;99.90;;;3.56;84.11;101092.47;10510810;28;19928;-93
2022/10/20 05:11:35;;;;;;;;;;;5.50;99.90;;;3.53;84.63;101105.81;10516013;28;19935;-92
2022/10/20 05:16:38;;;;;;;;;;;5.40;99.90;;;3.49;84.74;101098.13;10468788;28;19929;-93
2022/10/20 05:21:41;;;;;;;;;;;5.40;99.90;;;3.58;84.90;101112.44;10515424;28;19935;-91
2022/10/20 05:26:49;;;;;;;;;;;5.50;99.90;;;3.62;85.46;101121.84;10509321;28;19982;-90
2022/10/20 05:31:52;;;;;;;;;;;5.50;99.90;;;3.70;85.64;101131.84;10509235;28;19939;-90
2022/10/20 05:36:55;;;;;;;;;;;5.60;99.90;;;3.78;85.79;101134.81;10509716;28;19928;-89
2022/10/20 05:41:57;;;;;;;;;;;5.60;99.90;;;3.85;85.73;101132.63;10523537;28;19968;-90
2022/10/20 05:47:00;;;;;;;;;;;5.70;99.90;;;3.95;86.45;101145.03;10506566;28;20027;-91
2022/10/20 05:52:03;;;;;;;;;;;5.80;99.90;;;4.10;86.19;101155.50;10525482;28;20308;-90
2022/10/20 05:57:06;;;;;;;;;;;5.90;99.90;;;4.24;86.11;101158.03;10509194;28;19978;-90
2022/10/20 06:02:10;;;;;;;;;;;6.10;99.90;;;4.40;85.83;101163.09;10508847;28;19929;-91
2022/10/20 06:07:13;;;;;;;;;;;6.30;99.90;;;4.54;86.00;101174.34;10519176;28;19974;-88
2022/10/20 06:12:16;;;;;;;;;;;6.40;99.90;;;4.70;85.78;101183.84;10500007;28;20346;-88
2022/10/20 06:17:19;;;;;;;;;;;6.60;99.90;;;4.81;85.63;101178.69;10516033;28;20293;-90
2022/10/20 06:22:22;;;;;;;;;;;6.70;99.90;;;4.95;85.07;101196.97;10515178;28;19929;-89
2022/10/20 06:27:25;;;;;;;;;;;6.80;99.90;;;5.01;84.75;101193.91;10499299;28;20384;-90
2022/10/20 06:32:28;;;;;;;;;;;6.90;99.90;;;5.16;84.39;101209.59;10498321;28;19979;-89
2022/10/20 06:37:31;;;;;;;;;;;7.00;99.90;;;5.32;84.31;101212.81;10472856;28;19929;-90
2022/10/20 06:42:34;;;;;;;;;;;7.20;99.90;;;5.55;84.20;101221.72;10473907;28;19935;-90
2022/10/20 06:47:37;;;;;;;;;;;7.40;99.90;;;5.76;83.87;101217.56;10458898;28;20355;-90
2022/10/20 06:52:41;;;;;;;;;;;7.60;99.90;;;5.99;83.52;101218.50;10465345;28;20356;-89
2022/10/20 06:57:43;;;;;;;;;;;7.90;99.90;;;6.26;83.09;101215.63;10511428;28;20312;-90
2022/10/20 07:02:46;;;;;;;;;;;8.10;99.90;;;6.52;82.69;101218.91;10498357;28;19928;-90
2022/10/20 07:07:53;;;;;;;;;;;8.40;99.90;;;6.82;82.13;101223.66;10512604;28;19932;-90
2022/10/20 07:12:55;;;;;;;;;;;8.70;99.90;;;7.20;82.21;101223.31;10494330;28;20396;-88
2022/10/20 07:17:58;;;;;;;;;;;9.00;99.90;;;8.56;81.73;101221.91;10512881;28;19932;-88
2022/10/20 07:23:01;;;;;;;;;;;9.50;99.80;;;9.99;76.57;101223.53;10511983;28;19929;-88
2022/10/20 07:28:04;;;;;;;;;;;10.40;99.50;;;11.23;72.16;101213.66;10509173;28;19932;-88
2022/10/20 07:33:08;;;;;;;;;;;11.20;99.30;;;12.13;67.56;101206.66;10509770;28;19938;-88
2022/10/20 07:38:10;;;;;;;;;;;11.90;98.50;;;12.41;64.42;101214.53;10497403;28;19928;-88
2022/10/20 07:43:13;;;;;;;;;;;12.40;97.80;;;12.19;62.74;101215.88;10510208;28;19934;-88
2022/10/20 07:48:16;;;;;;;;;;;12.70;96.70;;;11.65;62.58;101215.81;10510215;28;20396;-89
2022/10/20 07:53:19;;;;;;;;;;;12.80;95.30;;;11.45;63.83;101222.22;10470358;28;19983;-89
2022/10/20 07:58:22;;;;;;;;;;;12.80;94.80;;;11.28;64.25;101212.38;10455212;28;19929;-88
2022/10/20 08:03:25;;;;;;;;;;;12.80;94.30;;;11.16;64.74;101222.38;10495358;28;20383;-87
2022/10/20 08:08:27;;;;;;;;;;;12.80;93.40;;;11.18;65.09;101218.56;10525076;28;20387;-88
2022/10/20 08:13:30;;;;;;;;;;;12.90;93.50;;;11.12;65.15;101213.00;10492565;28;19929;-88
2022/10/20 08:18:34;;;;;;;;;;;12.90;92.70;;;11.19;65.12;101214.09;10491935;28;19935;-88
2022/10/20 08:23:42;;;;;;;;;;;13.10;92.60;;;11.49;65.19;101227.09;10519422;28;19928;-88
2022/10/20 08:28:46;;;;;;;;;;;13.20;92.40;;;12.22;63.54;101207.53;10484835;28;19932;-87
2022/10/20 08:33:49;;;;;;;;;;;13.50;92.00;;;12.75;61.71;101215.44;10474083;28;19929;-89
2022/10/20 08:38:57;;;;;;;;;;;14.00;91.30;;;12.87;59.57;101218.66;10511130;28;19935;-88
2022/10/20 08:44:07;;;;;;;;;;;14.30;90.30;;;13.16;60.03;101214.81;10487061;28;20396;-88
2022/10/20 08:49:24;;;;;;;;;;;14.60;90.10;;;13.47;58.35;101210.63;10474290;28;19929;-88
2022/10/20 08:54:27;;;;;;;;;;;14.90;89.80;;;13.51;57.99;101217.34;10511913;28;19978;-88
2022/10/20 08:59:36;;;;;;;;;;;15.00;87.90;;;13.58;57.29;101222.84;10511593;28;19928;-88
2022/10/20 09:04:56;;;;;;;;;;;15.10;87.60;;;13.61;57.11;101222.53;10509716;28;19978;-87
2022/10/20 09:10:33;;;;;;;;;;;15.20;86.00;;;13.69;56.13;101222.56;10526507;28;19974;-88
2022/10/20 09:15:36;;;;;;;;;;;15.30;83.70;;;13.71;55.21;101227.72;10510311;28;20006;-88
2022/10/20 09:20:43;;;;;;;;;;;15.30;83.90;;;13.87;56.02;101225.09;10509077;28;19929;-87
2022/10/20 09:25:46;;;;;;;;;;;15.50;83.40;;;13.99;54.89;101218.44;10524109;28;19960;-88
2022/10/20 09:30:49;;;;;;;;;;;15.60;82.70;;;14.10;54.88;101220.78;10509691;28;19932;-88
2022/10/20 09:35:53;;;;;;;;;;;15.70;81.90;;;14.19;53.74;101222.44;10492407;28;19959;-89
2022/10/20 09:41:13;;;;;;;;;;;15.90;81.30;;;14.13;53.81;101225.78;10496730;28;19935;-87
2022/10/20 09:46:20;;;;;;;;;;;15.90;79.30;;;14.24;53.44;101208.59;10501114;28;19958;-87
2022/10/20 09:51:26;;;;;;;;;;;16.00;78.10;;;14.34;53.44;101214.63;10532409;28;19959;-88
2022/10/20 09:56:31;;;;;;;;;;;16.00;79.00;;;14.56;52.66;101213.09;10492177;28;20446;-88
2022/10/20 10:01:51;;;;;;;;;;;16.20;79.10;;;14.77;52.52;101204.56;10491406;28;19932;-88
2022/10/20 10:06:54;;;;;;;;;;;16.50;78.00;;;15.08;51.14;101206.47;10512797;28;19958;-89
2022/10/20 10:12:12;;;;;;;;;;;16.80;76.60;;;15.27;49.92;101201.53;10505306;28;20047;-87
2022/10/20 10:17:36;;;;;;;;;;;17.00;75.40;;;15.45;49.60;101189.75;10533167;28;19932;-88
2022/10/20 10:22:41;;;;;;;;;;;17.10;74.60;;;15.54;49.70;101194.06;10549305;28;19959;-87
2022/10/20 10:27:59;;;;;;;;;;;17.20;72.90;;;15.64;49.35;101175.94;10515180;28;19935;-88
2022/10/20 10:33:24;;;;;;;;;;;17.20;73.80;;;15.73;49.02;101174.03;10514937;28;20026;-88
2022/10/20 10:38:27;;;;;;;;;;;17.50;72.50;;;15.86;48.84;101162.72;10505589;28;20007;-90
2022/10/20 10:43:55;;;;;;;;;;;17.90;71.50;;;16.31;47.81;101156.47;10497126;28;19928;-89
2022/10/20 10:49:35;;;;;;;;;;;18.50;70.70;;;16.75;46.80;101148.50;10530903;28;19928;-88
2022/10/20 10:54:55;;;;;;;;;;;19.20;68.30;;;17.27;45.91;101136.81;10529051;28;19928;-89
2022/10/20 11:00:00;;;;;;;;;;;19.80;67.60;;;17.46;44.57;101139.91;10550807;28;20307;-88
2022/10/20 11:05:26;;;;;;;;;;;19.90;63.80;;;17.38;43.97;101127.38;10530459;28;19929;-88
2022/10/20 11:10:58;;;;;;;;;;;19.70;64.80;;;17.35;44.52;101120.56;10529660;28;19980;-89
2022/10/20 11:16:52;;;;;;;;;;;19.70;63.10;;;17.95;43.52;101106.91;10531194;28;20001;-88
2022/10/20 11:22:16;;;;;;;;;;;20.20;62.40;;;18.29;42.31;101088.13;10509530;28;19929;-89
2022/10/20 11:27:24;;;;;;;;;;;20.70;61.40;;;18.16;42.42;101088.03;10497989;28;20417;-89
2022/10/20 11:32:33;;;;;;;;;;;20.60;60.70;;;18.35;42.25;101078.41;10497223;28;20355;-88
2022/10/20 11:37:42;;;;;;;;;;;20.80;59.60;;;18.31;41.82;101075.31;10511779;28;19928;-89
2022/10/20 11:43:13;;;;;;;;;;;20.70;58.80;;;18.17;41.15;101070.84;10487747;28;19936;-90
2022/10/20 11:48:39;;;;;;;;;;;20.50;58.50;;;17.52;42.12;101075.47;10487996;28;20300;-89
2022/10/20 11:54:00;;;;;;;;;;;19.70;58.70;;;16.71;43.32;101072.06;10513159;28;19928;-89
2022/10/20 11:59:33;;;;;;;;;;;18.80;60.10;;;16.15;45.32;101063.63;10530094;28;20348;-88
2022/10/20 12:05:07;;;;;;;;;;;18.10;61.90;;;15.85;46.31;101054.69;10525632;28;19981;-89
2022/10/20 12:10:42;;;;;;;;;;;17.70;63.10;;;15.42;46.15;101064.22;10504189;28;19935;-89
2022/10/20 12:15:53;;;;;;;;;;;17.30;63.10;;;14.97;47.17;101061.31;10486739;28;19928;-89
2022/10/20 12:21:04;;;;;;;;;;;16.80;63.80;;;14.75;48.02;101048.69;10499916;28;19928;-89
2022/10/20 12:26:29;;;;;;;;;;;16.50;64.70;;;14.61;49.48;101058.28;10545260;28;19971;-89
2022/10/20 12:32:19;;;;;;;;;;;16.40;65.60;;;14.75;49.65;101045.19;10805534;27;863677;-88
2022/10/20 12:37:22;;;;;;;;;;;16.40;66.70;;;14.87;49.45;101039.31;10840874;27;19930;-88
2022/10/20 12:42:28;;;;;;;;;;;16.60;66.90;;;14.80;48.56;101032.97;10821741;27;20351;-88
2022/10/20 12:47:33;;;;;;;;;;;16.50;65.80;;;14.60;48.91;101019.19;10822064;27;19937;-88
2022/10/20 12:52:39;;;;;;;;;;;16.30;66.30;;;14.48;49.10;101027.75;10804123;27;19930;-89
2022/10/20 12:57:43;;;;;;;;;;;16.10;66.50;;;14.40;49.59;101015.25;10821777;27;19931;-89
2022/10/20 13:02:57;;;;;;;;;;;16.10;67.00;;;14.30;48.81;101009.25;10803377;27;19930;-88
2022/10/20 13:08:14;;;;;;;;;;;16.00;66.50;;;14.22;49.56;101012.78;10803950;27;19930;-88
2022/10/20 13:13:17;;;;;;;;;;;15.90;67.00;;;14.16;49.18;101008.97;10804738;27;20783;-89
2022/10/20 13:18:21;;;;;;;;;;;15.80;66.70;;;14.14;49.45;101002.09;10818785;27;19938;-87
2022/10/20 13:23:48;;;;;;;;;;;15.80;67.10;;;14.13;49.64;101003.94;10799399;27;19930;-87
2022/10/20 13:28:54;;;;;;;;;;;15.80;67.30;;;14.10;49.78;101004.31;10815849;27;19975;-88
2022/10/20 13:34:15;;;;;;;;;;;15.80;67.50;;;14.04;49.43;100998.81;10772547;27;19937;-88
2022/10/20 13:39:34;;;;;;;;;;;15.70;67.10;;;14.02;49.70;101006.97;10768555;27;19931;-87
2022/10/20 13:44:48;;;;;;;;;;;15.70;67.30;;;14.01;49.56;101004.47;10756172;27;19953;-84
2022/10/20 13:50:12;;;;;;;;;;;15.60;67.20;;;13.99;50.00;101007.34;10748094;27;20101;-84
2022/10/20 13:55:23;;;;;;;;;;;15.60;67.50;;;13.95;49.95;101000.66;10766936;27;19930;-86
2022/10/20 14:00:29;;;;;;;;;;;15.60;67.60;;;13.92;50.27;100991.16;10775396;27;19953;-84
2022/10/20 14:05:37;;;;;;;;;;;15.60;67.80;;;13.89;49.30;100991.47;10746967;27;19930;-85
2022/10/20 14:11:03;;;;;;;;;;;15.50;66.80;;;13.84;49.20;100984.97;10748780;27;19991;-85
2022/10/20 14:16:17;;;;;;;;;;;15.50;67.00;;;13.80;49.41;100984.50;10774738;27;19979;-84
2022/10/20 14:21:20;;;;;;;;;;;15.50;67.10;;;13.73;49.25;100974.63;10759615;27;19979;-85
2022/10/20 14:26:23;;;;;;;;;;;15.40;66.80;;;13.71;49.69;100985.50;10721040;27;19931;-85
2022/10/20 14:31:27;;;;;;;;;;;15.40;67.80;;;13.69;49.76;100984.00;10754137;27;19930;-85
2022/10/20 14:36:30;;;;;;;;;;;15.40;67.30;;;13.60;49.44;100978.66;10760578;27;19934;-84
2022/10/20 14:41:34;;;;;;;;;;;15.30;67.00;;;13.55;49.92;100981.00;10755419;27;20071;-84
2022/10/20 14:46:39;;;;;;;;;;;15.20;67.40;;;13.51;50.35;100985.03;10746974;27;19930;-85
2022/10/20 14:51:52;;;;;;;;;;;15.20;68.00;;;13.40;50.53;100974.69;10752728;27;19937;-85
2022/10/20 14:57:01;;;;;;;;;;;15.10;68.00;;;13.36;51.17;100973.34;10788729;27;19951;-85
2022/10/20 15:02:08;;;;;;;;;;;15.10;68.60;;;13.28;51.70;100970.69;10771244;27;19992;-85
2022/10/20 15:07:32;;;;;;;;;;;15.00;69.00;;;13.13;52.16;100963.31;10805429;27;19930;-85
2022/10/20 15:12:35;;;;;;;;;;;14.90;69.50;;;12.93;53.24;100961.94;10754074;27;19931;-85
2022/10/20 15:17:41;;;;;;;;;;;14.70;70.80;;;12.71;54.16;100958.03;10787970;27;19931;-86
2022/10/20 15:22:44;;;;;;;;;;;14.50;71.60;;;12.46;54.99;100959.81;10750081;27;19934;-86
2022/10/20 15:27:47;;;;;;;;;;;14.20;72.40;;;12.22;55.90;100957.06;10769191;27;19936;-86
2022/10/20 15:32:51;;;;;;;;;;;13.90;73.40;;;11.90;57.08;100953.25;10768731;27;19937;-86
2022/10/20 15:37:55;;;;;;;;;;;13.60;73.70;;;11.61;57.08;100950.88;10770550;27;19979;-86
2022/10/20 15:42:57;;;;;;;;;;;13.40;74.40;;;11.34;58.22;100946.53;10762590;27;19931;-85
2022/10/20 15:48:00;;;;;;;;;;;13.10;75.30;;;11.06;58.56;100951.09;10741412;27;19931;-84
2022/10/20 15:53:04;;;;;;;;;;;12.90;75.10;;;10.78;59.30;100950.34;10767890;27;19930;-85
2022/10/20 15:58:07;;;;;;;;;;;12.60;75.20;;;10.47;59.79;100949.84;10767289;27;19937;-84
2022/10/20 16:03:16;;;;;;;;;;;12.30;74.20;;;10.23;60.63;100955.69;10766257;27;19930;-85
2022/10/20 16:08:19;;;;;;;;;;;12.10;74.30;;;10.03;61.67;100956.75;10763100;27;19930;-85
2022/10/20 16:13:22;;;;;;;;;;;11.90;75.00;;;9.88;62.14;100973.13;10764117;27;19936;-85
2022/10/20 16:18:25;;;;;;;;;;;11.70;75.80;;;9.76;62.65;100973.44;10768462;27;19931;-84
2022/10/20 16:23:27;;;;;;;;;;;11.60;76.10;;;9.63;63.12;100963.97;10785537;27;20409;-84
2022/10/20 16:28:30;;;;;;;;;;;11.50;76.70;;;9.53;63.38;100968.44;10784884;27;19954;-85
2022/10/20 16:33:34;;;;;;;;;;;11.40;78.00;;;9.41;63.97;100982.00;10766617;27;19931;-85
2022/10/20 16:38:37;;;;;;;;;;;11.20;80.20;;;9.26;64.25;100977.16;10766745;27;19930;-84
2022/10/20 16:43:44;;;;;;;;;;;11.00;80.30;;;9.15;64.69;100974.63;10770387;27;19953;-85
2022/10/20 16:48:47;;;;;;;;;;;10.90;80.90;;;9.05;65.39;100984.41;10753213;27;19937;-85
2022/10/20 16:53:50;;;;;;;;;;;10.80;81.90;;;8.95;66.00;100986.22;10765672;27;19937;-87
2022/10/20 16:58:52;;;;;;;;;;;10.70;82.60;;;8.87;66.25;100980.75;10767089;27;19930;-85
2022/10/20 17:03:55;;;;;;;;;;;10.60;83.10;;;8.75;66.84;100983.53;10766431;27;19931;-85
2022/10/20 17:08:58;;;;;;;;;;;10.50;82.70;;;8.68;67.27;100976.25;10748349;27;20025;-85
2022/10/20 17:14:03;;;;;;;;;;;10.40;82.00;;;8.66;67.27;100989.66;10784187;27;19937;-85
2022/10/20 17:19:06;;;;;;;;;;;10.40;82.90;;;8.59;67.16;100983.22;10757094;27;19936;-85
2022/10/20 17:24:13;;;;;;;;;;;10.40;81.80;;;8.50;67.58;100998.09;10772491;27;19931;-88
2022/10/20 17:29:16;;;;;;;;;;;10.40;82.70;;;8.38;67.87;100995.69;10755927;27;19977;-87
2022/10/20 17:34:22;;;;;;;;;;;10.20;83.50;;;8.19;67.90;101002.56;10790618;27;19937;-86
2022/10/20 17:39:27;;;;;;;;;;;10.10;83.80;;;8.00;68.30;101003.31;10776212;27;19930;-85
2022/10/20 17:44:30;;;;;;;;;;;9.90;84.80;;;7.77;68.84;101001.78;10790993;27;19934;-86
2022/10/20 17:49:32;;;;;;;;;;;9.60;85.60;;;7.58;69.48;101013.09;10790397;27;19943;-87
2022/10/20 17:54:35;;;;;;;;;;;9.40;86.80;;;7.43;69.79;101019.66;10753948;27;20298;-87
2022/10/20 17:59:38;;;;;;;;;;;9.30;86.10;;;7.27;70.75;101008.69;10772943;27;19930;-87
2022/10/20 18:04:56;;;;;;;;;;;9.10;88.00;;;7.11;70.81;101009.09;10769630;27;19942;-86
2022/10/20 18:09:59;;;;;;;;;;;8.90;87.30;;;6.94;71.24;100992.81;10750593;27;19936;-90
2022/10/20 18:15:02;;;;;;;;;;;8.80;88.60;;;6.81;72.02;101005.34;10746714;27;19930;-90
2022/10/20 18:20:06;;;;;;;;;;;8.60;90.00;;;6.64;72.78;101001.41;10758243;27;20383;-92
2022/10/20 18:25:08;;;;;;;;;;;8.50;90.70;;;6.49;73.33;101000.00;10770714;27;19934;-93
2022/10/20 18:30:11;;;;;;;;;;;8.30;91.10;;;6.42;73.90;101006.75;10751222;27;19937;-90
2022/10/20 18:35:14;;;;;;;;;;;8.20;90.70;;;6.33;74.47;100996.91;10745396;27;19930;-91
2022/10/20 18:40:17;;;;;;;;;;;8.20;91.70;;;6.30;74.89;101002.44;10729082;27;19937;-90
2022/10/20 18:45:20;;;;;;;;;;;8.10;91.90;;;6.26;75.04;101001.81;10731989;27;19958;-91
2022/10/20 18:50:27;;;;;;;;;;;8.00;92.30;;;6.19;75.55;100997.16;10742707;27;20321;-91
2022/10/20 18:55:30;;;;;;;;;;;8.00;92.40;;;6.15;75.42;100992.09;10728136;27;19934;-91
2022/10/20 19:00:33;;;;;;;;;;;8.00;91.90;;;6.11;75.25;100995.09;10764862;27;20029;-91
2022/10/20 19:05:37;;;;;;;;;;;7.90;92.30;;;6.05;75.54;101009.59;10744481;27;19930;-90
2022/10/20 19:10:42;;;;;;;;;;;7.90;92.70;;;5.98;75.94;101012.84;10786812;27;20354;-91
2022/10/20 19:15:45;;;;;;;;;;;7.80;92.70;;;5.91;76.18;101007.19;10763278;27;19954;-91
2022/10/20 19:21:00;;;;;;;;;;;7.80;93.60;;;5.79;76.87;101011.59;10759862;27;19930;-88
2022/10/20 19:26:17;;;;;;;;;;;7.70;93.80;;;5.69;77.12;101009.75;10754211;27;19937;-83
2022/10/20 19:31:42;;;;;;;;;;;7.50;94.50;;;5.61;77.71;101011.19;10744153;27;19930;-84
2022/10/20 19:36:46;;;;;;;;;;;7.50;94.70;;;5.55;78.23;101016.91;10753156;27;20002;-84
2022/10/20 19:41:49;;;;;;;;;;;7.40;95.10;;;5.48;78.28;101015.69;10767864;27;20449;-84
2022/10/20 19:46:52;;;;;;;;;;;7.30;95.50;;;5.45;78.59;101015.91;10763102;27;19931;-84
2022/10/20 19:51:55;;;;;;;;;;;7.30;95.30;;;5.42;78.52;101018.81;10740010;27;19938;-84
2022/10/20 19:56:58;;;;;;;;;;;7.30;94.90;;;5.34;78.75;101016.75;10750039;27;20049;-84
2022/10/20 20:02:01;;;;;;;;;;;7.20;95.80;;;5.26;79.09;101012.97;10783836;27;19930;-85
2022/10/20 20:07:04;;;;;;;;;;;7.10;96.10;;;5.19;79.29;101009.97;10766146;27;19979;-84
2022/10/20 20:12:07;;;;;;;;;;;7.00;96.40;;;5.10;79.66;101021.19;10779019;27;19931;-84
2022/10/20 20:17:10;;;;;;;;;;;7.00;97.30;;;5.01;79.73;101022.69;10750472;27;19934;-84
2022/10/20 20:22:13;;;;;;;;;;;6.90;97.70;;;4.95;80.18;101011.75;10748860;27;20025;-84
2022/10/20 20:27:16;;;;;;;;;;;6.80;97.50;;;4.87;80.57;101017.59;10759282;27;20389;-84
2022/10/20 20:32:19;;;;;;;;;;;6.70;98.50;;;4.79;80.67;101027.81;10696703;27;20022;-84
2022/10/20 20:37:22;;;;;;;;;;;6.60;98.50;;;4.73;81.13;101015.94;10714165;27;19939;-84
2022/10/20 20:42:25;;;;;;;;;;;6.60;98.90;;;4.69;81.37;101022.41;10694370;27;19932;-84
2022/10/20 20:47:31;;;;;;;;;;;6.50;99.40;;;4.64;81.62;101034.22;10713910;27;19931;-85
2022/10/20 20:52:34;;;;;;;;;;;6.50;99.30;;;4.55;81.93;101018.09;10702572;27;19931;-85
2022/10/20 20:57:37;;;;;;;;;;;6.40;99.90;;;4.52;81.94;101025.38;10720854;27;19931;-84
2022/10/20 21:02:43;;;;;;;;;;;6.40;99.70;;;4.46;82.14;101016.13;10702768;27;19938;-85
2022/10/20 21:07:46;;;;;;;;;;;6.40;99.90;;;4.41;82.28;101023.50;10662451;27;19931;-85
2022/10/20 21:12:48;;;;;;;;;;;6.30;99.90;;;4.36;82.44;101019.50;10699524;27;19938;-85
2022/10/20 21:17:51;;;;;;;;;;;6.20;99.90;;;4.32;82.67;101018.03;10692205;27;20058;-83
2022/10/20 21:22:54;;;;;;;;;;;6.20;99.90;;;4.28;83.02;101023.53;10701043;27;19931;-85
2022/10/20 21:27:57;;;;;;;;;;;6.10;99.90;;;4.29;82.95;101019.09;10701370;27;19934;-85
2022/10/20 21:33:00;;;;;;;;;;;6.10;99.90;;;4.28;83.35;101014.78;10770297;27;19930;-84
2022/10/20 21:38:02;;;;;;;;;;;6.10;99.90;;;4.23;83.38;101020.38;10733201;27;19983;-84
2022/10/20 21:43:09;;;;;;;;;;;6.10;99.90;;;4.20;83.69;101010.09;10745108;27;20022;-84
2022/10/20 21:48:12;;;;;;;;;;;6.10;99.90;;;4.16;84.06;101011.22;10735361;27;19938;-84
2022/10/20 21:53:15;;;;;;;;;;;6.10;99.90;;;4.15;84.09;101013.97;10769782;27;20359;-84
2022/10/20 21:58:18;;;;;;;;;;;6.00;99.90;;;4.10;84.49;101002.94;10768568;27;19930;-84
2022/10/20 22:03:21;;;;;;;;;;;6.00;99.90;;;4.07;84.62;101011.03;10767251;27;19930;-84
2022/10/20 22:08:24;;;;;;;;;;;6.00;99.90;;;4.06;84.67;101012.81;10769484;27;19937;-84
2022/10/20 22:13:27;;;;;;;;;;;6.00;99.90;;;4.05;84.67;101008.50;10770816;27;19930;-84
2022/10/20 22:18:30;;;;;;;;;;;6.00;99.90;;;3.97;84.63;101009.03;10770580;27;19978;-84
2022/10/20 22:23:33;;;;;;;;;;;5.90;99.90;;;3.92;84.93;101010.31;10753064;27;19937;-84
2022/10/20 22:28:37;;;;;;;;;;;5.90;99.90;;;3.91;84.91;101019.97;10784348;27;20035;-84
2022/10/20 22:33:39;;;;;;;;;;;5.80;99.90;;;3.86;84.66;101026.50;10768804;27;19937;-84
2022/10/20 22:38:42;;;;;;;;;;;5.80;99.90;;;3.82;84.69;101025.84;10786695;27;19936;-84
2022/10/20 22:43:45;;;;;;;;;;;5.70;99.90;;;3.78;84.92;101023.53;10751875;27;19955;-84
2022/10/20 22:48:48;;;;;;;;;;;5.70;99.90;;;3.75;85.07;101028.06;10784240;27;19931;-84
2022/10/20 22:53:51;;;;;;;;;;;5.60;99.90;;;3.71;85.13;101023.94;10756599;27;19930;-84
2022/10/20 22:58:54;;;;;;;;;;;5.60;99.90;;;3.69;85.35;101032.88;10752998;27;19951;-84
2022/10/20 23:03:57;;;;;;;;;;;5.60;99.90;;;3.67;85.61;101026.91;10762693;27;19931;-84
2022/10/20 23:09:00;;;;;;;;;;;5.60;99.90;;;3.64;85.53;101017.41;10767768;27;20313;-84
2022/10/20 23:14:02;;;;;;;;;;;5.60;99.90;;;3.62;85.74;101013.22;10752111;27;20442;-84
2022/10/20 23:19:05;;;;;;;;;;;5.50;99.90;;;3.58;85.61;101001.22;10759447;27;20416;-84
2022/10/20 23:24:08;;;;;;;;;;;5.50;99.90;;;3.55;85.50;100996.19;10745627;27;19953;-84